KGLR/GLR METAR and TAF weather

Enter ICAO airport designator
Station Type Date Time Source
KGLR METAR 2021/05/12 02:53 UTC NOAA

KGLR 120253Z AUTO 30004KT 10SM CLR 07/M04 A3034 RMK AO2 SLP285 T00671044 53027


Station Type Date Time Source
KGLR Decoded METAR 2021/05/12 02:53 UTC NOAA

GAYLORD REGIONAL AIRPORT, MI, United States (KGLR) 45-01N 84-41W 407M
May 11, 2021 - 10:53 PM EDT / 2021.05.12 0253 UTC
Wind: from the WNW (300 degrees) at 5 MPH (4 KT):0
Visibility: 10 mile(s):0
Sky conditions: clear
Temperature: 44.1 F (6.7 C)
Dew Point: 24.1 F (-4.4 C)
Relative Humidity: 44%
Pressure (altimeter): 30.34 in. Hg (1027 hPa)
Pressure tendency: 0.08 inches (2.7 hPa) higher than three hours ago
ob: KGLR 120253Z AUTO 30004KT 10SM CLR 07/M04 A3034 RMK AO2 SLP285 T00671044 53027
cycle: 3

Station Type Date Time Source
KGLR TAF UTC NOAA

Error!

Example: see airport list